sensor_id;sensor_type;location;lat;lon;timestamp;temperature;humidity
23291;DHT22;11814;44.686;10.842;2024-02-23T00:01:30;13.90;92.30
23291;DHT22;11814;44.686;10.842;2024-02-23T00:03:56;14.00;91.60
23291;DHT22;11814;44.686;10.842;2024-02-23T00:06:21;14.10;90.80
23291;DHT22;11814;44.686;10.842;2024-02-23T00:08:53;14.30;90.00
23291;DHT22;11814;44.686;10.842;2024-02-23T00:11:20;14.30;89.40
23291;DHT22;11814;44.686;10.842;2024-02-23T00:13:46;14.30;88.60
23291;DHT22;11814;44.686;10.842;2024-02-23T00:16:11;14.30;87.80
23291;DHT22;11814;44.686;10.842;2024-02-23T00:18:37;14.40;87.50
23291;DHT22;11814;44.686;10.842;2024-02-23T00:21:03;14.30;87.50
23291;DHT22;11814;44.686;10.842;2024-02-23T00:23:29;14.20;87.20
23291;DHT22;11814;44.686;10.842;2024-02-23T00:25:55;14.20;86.90
23291;DHT22;11814;44.686;10.842;2024-02-23T00:28:21;14.20;86.70
23291;DHT22;11814;44.686;10.842;2024-02-23T00:30:46;14.20;86.40
23291;DHT22;11814;44.686;10.842;2024-02-23T00:33:12;14.20;86.40
23291;DHT22;11814;44.686;10.842;2024-02-23T00:35:38;14.10;86.40
23291;DHT22;11814;44.686;10.842;2024-02-23T00:38:03;14.10;86.40
23291;DHT22;11814;44.686;10.842;2024-02-23T00:40:29;14.10;86.50
23291;DHT22;11814;44.686;10.842;2024-02-23T00:42:55;14.00;86.60
23291;DHT22;11814;44.686;10.842;2024-02-23T00:45:20;14.00;86.70
23291;DHT22;11814;44.686;10.842;2024-02-23T00:47:47;14.00;86.50
23291;DHT22;11814;44.686;10.842;2024-02-23T00:50:13;14.00;86.20
23291;DHT22;11814;44.686;10.842;2024-02-23T00:52:39;14.00;86.10
23291;DHT22;11814;44.686;10.842;2024-02-23T00:55:06;14.00;86.00
23291;DHT22;11814;44.686;10.842;2024-02-23T00:57:34;14.00;86.10
23291;DHT22;11814;44.686;10.842;2024-02-23T01:00:01;14.00;86.20
23291;DHT22;11814;44.686;10.842;2024-02-23T01:02:28;14.00;86.20
23291;DHT22;11814;44.686;10.842;2024-02-23T01:04:54;13.90;86.10
23291;DHT22;11814;44.686;10.842;2024-02-23T01:07:22;14.00;86.20
23291;DHT22;11814;44.686;10.842;2024-02-23T01:09:48;14.00;86.20
23291;DHT22;11814;44.686;10.842;2024-02-23T01:12:14;14.00;85.80
23291;DHT22;11814;44.686;10.842;2024-02-23T01:14:40;14.00;85.70
23291;DHT22;11814;44.686;10.842;2024-02-23T01:17:05;14.10;85.60
23291;DHT22;11814;44.686;10.842;2024-02-23T01:19:31;14.10;85.40
23291;DHT22;11814;44.686;10.842;2024-02-23T01:21:56;14.10;85.20
23291;DHT22;11814;44.686;10.842;2024-02-23T01:24:26;14.10;84.80
23291;DHT22;11814;44.686;10.842;2024-02-23T01:26:53;14.20;84.50
23291;DHT22;11814;44.686;10.842;2024-02-23T01:29:20;14.30;84.10
23291;DHT22;11814;44.686;10.842;2024-02-23T01:31:46;14.30;83.80
23291;DHT22;11814;44.686;10.842;2024-02-23T01:34:11;14.30;83.70
23291;DHT22;11814;44.686;10.842;2024-02-23T01:36:37;14.30;83.70
23291;DHT22;11814;44.686;10.842;2024-02-23T01:39:04;14.20;83.60
23291;DHT22;11814;44.686;10.842;2024-02-23T01:41:30;14.20;83.60
23291;DHT22;11814;44.686;10.842;2024-02-23T01:43:55;14.20;83.40
23291;DHT22;11814;44.686;10.842;2024-02-23T01:46:21;14.20;83.20
23291;DHT22;11814;44.686;10.842;2024-02-23T01:48:47;14.20;83.10
23291;DHT22;11814;44.686;10.842;2024-02-23T01:51:13;14.20;83.00
23291;DHT22;11814;44.686;10.842;2024-02-23T01:53:39;14.10;82.70
23291;DHT22;11814;44.686;10.842;2024-02-23T01:56:06;14.20;82.40
23291;DHT22;11814;44.686;10.842;2024-02-23T01:58:34;14.20;82.30
23291;DHT22;11814;44.686;10.842;2024-02-23T02:01:00;14.20;82.10
23291;DHT22;11814;44.686;10.842;2024-02-23T02:03:26;14.20;82.20
23291;DHT22;11814;44.686;10.842;2024-02-23T02:05:53;14.20;82.10
23291;DHT22;11814;44.686;10.842;2024-02-23T02:08:19;14.10;81.90
23291;DHT22;11814;44.686;10.842;2024-02-23T02:10:45;14.00;81.70
23291;DHT22;11814;44.686;10.842;2024-02-23T02:13:12;14.20;81.50
23291;DHT22;11814;44.686;10.842;2024-02-23T02:15:38;14.20;81.20
23291;DHT22;11814;44.686;10.842;2024-02-23T02:18:04;14.30;80.90
23291;DHT22;11814;44.686;10.842;2024-02-23T02:20:32;14.30;80.50
23291;DHT22;11814;44.686;10.842;2024-02-23T02:22:58;14.40;80.00
23291;DHT22;11814;44.686;10.842;2024-02-23T02:25:24;14.50;79.60
23291;DHT22;11814;44.686;10.842;2024-02-23T02:27:50;14.50;79.40
23291;DHT22;11814;44.686;10.842;2024-02-23T02:30:16;14.60;79.30
23291;DHT22;11814;44.686;10.842;2024-02-23T02:32:41;14.50;79.10
23291;DHT22;11814;44.686;10.842;2024-02-23T02:35:07;14.50;79.00
23291;DHT22;11814;44.686;10.842;2024-02-23T02:37:33;14.50;79.20
23291;DHT22;11814;44.686;10.842;2024-02-23T02:39:59;14.50;79.40
23291;DHT22;11814;44.686;10.842;2024-02-23T02:42:24;14.40;79.50
23291;DHT22;11814;44.686;10.842;2024-02-23T02:44:50;14.40;79.70
23291;DHT22;11814;44.686;10.842;2024-02-23T02:47:15;14.30;79.90
23291;DHT22;11814;44.686;10.842;2024-02-23T02:49:41;14.30;80.20
23291;DHT22;11814;44.686;10.842;2024-02-23T02:52:06;14.40;80.50
23291;DHT22;11814;44.686;10.842;2024-02-23T02:54:34;14.30;80.60
23291;DHT22;11814;44.686;10.842;2024-02-23T02:56:59;14.30;80.70
23291;DHT22;11814;44.686;10.842;2024-02-23T02:59:25;14.30;80.80
23291;DHT22;11814;44.686;10.842;2024-02-23T03:01:50;14.30;80.90
23291;DHT22;11814;44.686;10.842;2024-02-23T03:04:16;14.30;80.90
23291;DHT22;11814;44.686;10.842;2024-02-23T03:06:41;14.30;80.90
23291;DHT22;11814;44.686;10.842;2024-02-23T03:09:07;14.30;80.90
23291;DHT22;11814;44.686;10.842;2024-02-23T03:11:33;14.20;80.90
23291;DHT22;11814;44.686;10.842;2024-02-23T03:13:59;14.20;81.00
23291;DHT22;11814;44.686;10.842;2024-02-23T03:16:24;14.20;81.20
23291;DHT22;11814;44.686;10.842;2024-02-23T03:18:54;14.10;81.40
23291;DHT22;11814;44.686;10.842;2024-02-23T03:21:20;14.10;81.50
23291;DHT22;11814;44.686;10.842;2024-02-23T03:23:46;14.00;82.40
23291;DHT22;11814;44.686;10.842;2024-02-23T03:26:11;14.00;81.90
23291;DHT22;11814;44.686;10.842;2024-02-23T03:28:37;14.00;82.00
23291;DHT22;11814;44.686;10.842;2024-02-23T03:31:03;14.00;82.20
23291;DHT22;11814;44.686;10.842;2024-02-23T03:33:28;13.90;82.40
23291;DHT22;11814;44.686;10.842;2024-02-23T03:35:54;13.80;82.60
23291;DHT22;11814;44.686;10.842;2024-02-23T03:38:20;13.80;82.90
23291;DHT22;11814;44.686;10.842;2024-02-23T03:40:46;13.80;83.10
23291;DHT22;11814;44.686;10.842;2024-02-23T03:43:12;13.80;83.10
23291;DHT22;11814;44.686;10.842;2024-02-23T03:45:37;13.80;83.00
23291;DHT22;11814;44.686;10.842;2024-02-23T03:48:06;13.80;83.10
23291;DHT22;11814;44.686;10.842;2024-02-23T03:50:32;13.80;83.20
23291;DHT22;11814;44.686;10.842;2024-02-23T03:52:57;13.80;83.30
23291;DHT22;11814;44.686;10.842;2024-02-23T03:55:23;13.80;83.50
23291;DHT22;11814;44.686;10.842;2024-02-23T03:57:52;13.80;83.60
23291;DHT22;11814;44.686;10.842;2024-02-23T04:00:17;13.80;83.80
23291;DHT22;11814;44.686;10.842;2024-02-23T04:02:45;13.80;83.80
23291;DHT22;11814;44.686;10.842;2024-02-23T04:05:11;13.90;84.00
23291;DHT22;11814;44.686;10.842;2024-02-23T04:07:37;13.90;84.00
23291;DHT22;11814;44.686;10.842;2024-02-23T04:10:02;14.00;84.10
23291;DHT22;11814;44.686;10.842;2024-02-23T04:12:30;14.00;84.00
23291;DHT22;11814;44.686;10.842;2024-02-23T04:14:56;14.00;84.10
23291;DHT22;11814;44.686;10.842;2024-02-23T04:17:22;14.00;84.10
23291;DHT22;11814;44.686;10.842;2024-02-23T04:19:47;14.00;84.20
23291;DHT22;11814;44.686;10.842;2024-02-23T04:22:13;14.00;84.30
23291;DHT22;11814;44.686;10.842;2024-02-23T04:24:39;14.00;84.40
23291;DHT22;11814;44.686;10.842;2024-02-23T04:27:06;14.00;84.60
23291;DHT22;11814;44.686;10.842;2024-02-23T04:29:32;14.00;84.70
23291;DHT22;11814;44.686;10.842;2024-02-23T04:31:59;14.00;84.80
23291;DHT22;11814;44.686;10.842;2024-02-23T04:34:25;14.00;84.70
23291;DHT22;11814;44.686;10.842;2024-02-23T04:36:50;14.00;84.70
23291;DHT22;11814;44.686;10.842;2024-02-23T04:39:16;14.00;84.80
23291;DHT22;11814;44.686;10.842;2024-02-23T04:41:42;14.00;84.90
23291;DHT22;11814;44.686;10.842;2024-02-23T04:44:07;14.00;85.10
23291;DHT22;11814;44.686;10.842;2024-02-23T04:46:33;14.00;85.30
23291;DHT22;11814;44.686;10.842;2024-02-23T04:49:00;14.00;85.40
23291;DHT22;11814;44.686;10.842;2024-02-23T04:51:26;14.10;85.60
23291;DHT22;11814;44.686;10.842;2024-02-23T04:53:51;14.00;85.60
23291;DHT22;11814;44.686;10.842;2024-02-23T04:56:17;14.10;85.70
23291;DHT22;11814;44.686;10.842;2024-02-23T04:58:43;14.10;85.70
23291;DHT22;11814;44.686;10.842;2024-02-23T05:01:09;14.20;85.80
23291;DHT22;11814;44.686;10.842;2024-02-23T05:03:36;14.20;85.70
23291;DHT22;11814;44.686;10.842;2024-02-23T05:06:02;14.30;85.70
23291;DHT22;11814;44.686;10.842;2024-02-23T05:08:28;14.40;85.50
23291;DHT22;11814;44.686;10.842;2024-02-23T05:10:58;14.50;85.40
23291;DHT22;11814;44.686;10.842;2024-02-23T05:13:24;14.50;85.30
23291;DHT22;11814;44.686;10.842;2024-02-23T05:15:50;14.50;85.30
23291;DHT22;11814;44.686;10.842;2024-02-23T05:18:16;14.60;85.10
23291;DHT22;11814;44.686;10.842;2024-02-23T05:20:41;14.60;84.90
23291;DHT22;11814;44.686;10.842;2024-02-23T05:23:07;14.70;84.90
23291;DHT22;11814;44.686;10.842;2024-02-23T05:25:33;14.70;84.60
23291;DHT22;11814;44.686;10.842;2024-02-23T05:27:58;14.70;84.40
23291;DHT22;11814;44.686;10.842;2024-02-23T05:30:24;14.80;84.20
23291;DHT22;11814;44.686;10.842;2024-02-23T05:32:52;14.90;83.70
23291;DHT22;11814;44.686;10.842;2024-02-23T05:35:17;14.90;83.40
23291;DHT22;11814;44.686;10.842;2024-02-23T05:37:43;14.90;83.20
23291;DHT22;11814;44.686;10.842;2024-02-23T05:40:09;14.90;83.10
23291;DHT22;11814;44.686;10.842;2024-02-23T05:42:37;15.00;83.10
23291;DHT22;11814;44.686;10.842;2024-02-23T05:45:03;15.00;82.80
23291;DHT22;11814;44.686;10.842;2024-02-23T05:47:38;15.10;82.60
23291;DHT22;11814;44.686;10.842;2024-02-23T05:50:04;15.10;82.40
23291;DHT22;11814;44.686;10.842;2024-02-23T05:52:33;15.10;82.30
23291;DHT22;11814;44.686;10.842;2024-02-23T05:55:00;15.10;82.10
23291;DHT22;11814;44.686;10.842;2024-02-23T05:57:28;15.20;82.00
23291;DHT22;11814;44.686;10.842;2024-02-23T05:59:54;15.20;81.70
23291;DHT22;11814;44.686;10.842;2024-02-23T06:02:21;15.20;81.40
23291;DHT22;11814;44.686;10.842;2024-02-23T06:04:47;15.20;81.40
23291;DHT22;11814;44.686;10.842;2024-02-23T06:07:13;15.20;81.40
23291;DHT22;11814;44.686;10.842;2024-02-23T06:09:41;15.20;81.40
23291;DHT22;11814;44.686;10.842;2024-02-23T06:12:07;15.20;81.50
23291;DHT22;11814;44.686;10.842;2024-02-23T06:14:33;15.20;81.50
23291;DHT22;11814;44.686;10.842;2024-02-23T06:16:58;15.20;81.70
23291;DHT22;11814;44.686;10.842;2024-02-23T06:19:24;15.20;81.90
23291;DHT22;11814;44.686;10.842;2024-02-23T06:21:49;15.20;82.00
23291;DHT22;11814;44.686;10.842;2024-02-23T06:24:16;15.20;82.10
23291;DHT22;11814;44.686;10.842;2024-02-23T06:26:42;15.20;82.00
23291;DHT22;11814;44.686;10.842;2024-02-23T06:29:07;15.20;82.00
23291;DHT22;11814;44.686;10.842;2024-02-23T06:31:37;15.20;82.00
23291;DHT22;11814;44.686;10.842;2024-02-23T06:34:03;15.20;82.10
23291;DHT22;11814;44.686;10.842;2024-02-23T06:36:29;15.20;82.10
23291;DHT22;11814;44.686;10.842;2024-02-23T06:38:55;15.30;82.10
23291;DHT22;11814;44.686;10.842;2024-02-23T06:41:20;15.30;82.10
23291;DHT22;11814;44.686;10.842;2024-02-23T06:43:46;15.30;82.10
23291;DHT22;11814;44.686;10.842;2024-02-23T06:46:12;15.30;82.10
23291;DHT22;11814;44.686;10.842;2024-02-23T06:48:38;15.20;82.40
23291;DHT22;11814;44.686;10.842;2024-02-23T06:51:07;15.20;82.40
23291;DHT22;11814;44.686;10.842;2024-02-23T06:53:36;15.20;83.10
23291;DHT22;11814;44.686;10.842;2024-02-23T06:56:02;15.30;82.40
23291;DHT22;11814;44.686;10.842;2024-02-23T06:58:27;15.30;82.50
23291;DHT22;11814;44.686;10.842;2024-02-23T07:00:53;15.30;82.50
23291;DHT22;11814;44.686;10.842;2024-02-23T07:03:19;15.30;82.50
23291;DHT22;11814;44.686;10.842;2024-02-23T07:05:45;15.40;82.50
23291;DHT22;11814;44.686;10.842;2024-02-23T07:08:11;15.40;82.60
23291;DHT22;11814;44.686;10.842;2024-02-23T07:10:37;15.50;82.50
23291;DHT22;11814;44.686;10.842;2024-02-23T07:13:03;15.80;82.60
23291;DHT22;11814;44.686;10.842;2024-02-23T07:15:29;16.00;82.00
23291;DHT22;11814;44.686;10.842;2024-02-23T07:17:55;16.30;81.60
23291;DHT22;11814;44.686;10.842;2024-02-23T07:20:22;16.30;80.80
23291;DHT22;11814;44.686;10.842;2024-02-23T07:22:48;16.30;80.30
23291;DHT22;11814;44.686;10.842;2024-02-23T07:25:17;16.30;80.40
23291;DHT22;11814;44.686;10.842;2024-02-23T07:27:45;16.20;80.50
23291;DHT22;11814;44.686;10.842;2024-02-23T07:30:11;16.00;80.60
23291;DHT22;11814;44.686;10.842;2024-02-23T07:32:37;15.80;81.00
23291;DHT22;11814;44.686;10.842;2024-02-23T07:35:04;15.70;81.50
23291;DHT22;11814;44.686;10.842;2024-02-23T07:37:29;15.50;81.80
23291;DHT22;11814;44.686;10.842;2024-02-23T07:39:55;15.40;82.10
23291;DHT22;11814;44.686;10.842;2024-02-23T07:42:21;15.40;82.50
23291;DHT22;11814;44.686;10.842;2024-02-23T07:44:47;15.30;82.90
23291;DHT22;11814;44.686;10.842;2024-02-23T07:47:12;15.20;83.20
23291;DHT22;11814;44.686;10.842;2024-02-23T07:49:38;15.20;83.60
23291;DHT22;11814;44.686;10.842;2024-02-23T07:52:06;15.20;83.90
23291;DHT22;11814;44.686;10.842;2024-02-23T07:54:32;15.10;84.50
23291;DHT22;11814;44.686;10.842;2024-02-23T07:56:58;14.90;85.10
23291;DHT22;11814;44.686;10.842;2024-02-23T07:59:24;14.70;86.30
23291;DHT22;11814;44.686;10.842;2024-02-23T08:01:50;14.40;87.40
23291;DHT22;11814;44.686;10.842;2024-02-23T08:04:15;14.20;89.00
23291;DHT22;11814;44.686;10.842;2024-02-23T08:06:41;14.00;90.10
23291;DHT22;11814;44.686;10.842;2024-02-23T08:09:08;13.80;90.90
23291;DHT22;11814;44.686;10.842;2024-02-23T08:11:34;13.60;91.80
23291;DHT22;11814;44.686;10.842;2024-02-23T08:14:00;13.40;92.70
23291;DHT22;11814;44.686;10.842;2024-02-23T08:16:26;13.20;93.80
23291;DHT22;11814;44.686;10.842;2024-02-23T08:18:52;13.10;95.30
23291;DHT22;11814;44.686;10.842;2024-02-23T08:21:18;13.00;97.40
23291;DHT22;11814;44.686;10.842;2024-02-23T08:23:44;12.90;99.90
23291;DHT22;11814;44.686;10.842;2024-02-23T08:26:10;12.80;99.90
23291;DHT22;11814;44.686;10.842;2024-02-23T08:28:36;12.80;99.90
23291;DHT22;11814;44.686;10.842;2024-02-23T08:31:01;12.80;99.90
23291;DHT22;11814;44.686;10.842;2024-02-23T08:33:27;12.80;99.90
23291;DHT22;11814;44.686;10.842;2024-02-23T08:35:52;12.70;99.90
23291;DHT22;11814;44.686;10.842;2024-02-23T08:38:18;12.80;99.90
23291;DHT22;11814;44.686;10.842;2024-02-23T08:40:44;12.60;99.90
23291;DHT22;11814;44.686;10.842;2024-02-23T08:43:10;12.50;99.90
23291;DHT22;11814;44.686;10.842;2024-02-23T08:45:36;12.50;99.90
23291;DHT22;11814;44.686;10.842;2024-02-23T08:48:02;12.50;99.90
23291;DHT22;11814;44.686;10.842;2024-02-23T08:50:29;12.50;99.90
23291;DHT22;11814;44.686;10.842;2024-02-23T08:52:54;12.50;99.90
23291;DHT22;11814;44.686;10.842;2024-02-23T08:55:20;12.50;99.90
23291;DHT22;11814;44.686;10.842;2024-02-23T08:57:47;12.60;99.90
23291;DHT22;11814;44.686;10.842;2024-02-23T09:00:13;12.60;99.90
23291;DHT22;11814;44.686;10.842;2024-02-23T09:02:39;12.60;99.90
23291;DHT22;11814;44.686;10.842;2024-02-23T09:05:08;12.50;99.90
23291;DHT22;11814;44.686;10.842;2024-02-23T09:07:33;12.70;99.90
23291;DHT22;11814;44.686;10.842;2024-02-23T09:09:59;12.60;99.90
23291;DHT22;11814;44.686;10.842;2024-02-23T09:12:25;12.60;99.90
23291;DHT22;11814;44.686;10.842;2024-02-23T09:14:51;12.50;99.90
23291;DHT22;11814;44.686;10.842;2024-02-23T09:17:17;12.40;99.90
23291;DHT22;11814;44.686;10.842;2024-02-23T09:19:44;12.40;99.90
23291;DHT22;11814;44.686;10.842;2024-02-23T09:22:10;12.30;99.90
23291;DHT22;11814;44.686;10.842;2024-02-23T09:24:39;12.20;99.90
23291;DHT22;11814;44.686;10.842;2024-02-23T09:27:05;12.30;99.90
23291;DHT22;11814;44.686;10.842;2024-02-23T09:29:32;12.20;99.90
23291;DHT22;11814;44.686;10.842;2024-02-23T09:31:58;12.10;99.90
23291;DHT22;11814;44.686;10.842;2024-02-23T09:34:24;12.10;99.90
23291;DHT22;11814;44.686;10.842;2024-02-23T09:36:50;12.00;99.90
23291;DHT22;11814;44.686;10.842;2024-02-23T09:39:16;11.90;99.90
23291;DHT22;11814;44.686;10.842;2024-02-23T09:41:42;11.90;99.90
23291;DHT22;11814;44.686;10.842;2024-02-23T09:44:09;11.90;99.90
23291;DHT22;11814;44.686;10.842;2024-02-23T09:46:37;11.80;99.90
23291;DHT22;11814;44.686;10.842;2024-02-23T09:49:03;11.80;99.90
23291;DHT22;11814;44.686;10.842;2024-02-23T09:51:31;11.70;99.90
23291;DHT22;11814;44.686;10.842;2024-02-23T09:53:58;11.70;99.90
23291;DHT22;11814;44.686;10.842;2024-02-23T09:56:27;11.70;99.90
23291;DHT22;11814;44.686;10.842;2024-02-23T09:58:56;11.80;99.90
23291;DHT22;11814;44.686;10.842;2024-02-23T10:01:28;11.80;99.90
23291;DHT22;11814;44.686;10.842;2024-02-23T10:03:57;11.70;99.90
23291;DHT22;11814;44.686;10.842;2024-02-23T10:06:26;11.80;99.90
23291;DHT22;11814;44.686;10.842;2024-02-23T10:08:53;11.80;99.90
23291;DHT22;11814;44.686;10.842;2024-02-23T10:11:22;11.80;99.90
23291;DHT22;11814;44.686;10.842;2024-02-23T10:13:49;11.80;99.90
23291;DHT22;11814;44.686;10.842;2024-02-23T10:16:18;11.70;99.90
23291;DHT22;11814;44.686;10.842;2024-02-23T10:18:49;11.80;99.90
23291;DHT22;11814;44.686;10.842;2024-02-23T10:21:15;11.80;99.90
23291;DHT22;11814;44.686;10.842;2024-02-23T10:23:41;11.70;99.90
23291;DHT22;11814;44.686;10.842;2024-02-23T10:26:07;11.80;99.90
23291;DHT22;11814;44.686;10.842;2024-02-23T10:28:35;11.70;99.90
23291;DHT22;11814;44.686;10.842;2024-02-23T10:31:00;11.70;99.90
23291;DHT22;11814;44.686;10.842;2024-02-23T10:33:27;11.70;99.90
23291;DHT22;11814;44.686;10.842;2024-02-23T10:35:56;11.70;99.90
23291;DHT22;11814;44.686;10.842;2024-02-23T10:38:23;11.60;99.90
23291;DHT22;11814;44.686;10.842;2024-02-23T10:40:50;11.60;99.90
23291;DHT22;11814;44.686;10.842;2024-02-23T10:43:19;11.50;99.90
23291;DHT22;11814;44.686;10.842;2024-02-23T10:45:46;11.50;99.90
23291;DHT22;11814;44.686;10.842;2024-02-23T10:48:12;11.50;99.90
23291;DHT22;11814;44.686;10.842;2024-02-23T10:50:40;11.50;99.90
23291;DHT22;11814;44.686;10.842;2024-02-23T10:53:07;11.40;99.90
23291;DHT22;11814;44.686;10.842;2024-02-23T10:55:37;11.40;99.90
23291;DHT22;11814;44.686;10.842;2024-02-23T10:58:06;11.30;99.90
23291;DHT22;11814;44.686;10.842;2024-02-23T11:00:34;11.30;99.90
23291;DHT22;11814;44.686;10.842;2024-02-23T11:03:00;11.30;99.90
23291;DHT22;11814;44.686;10.842;2024-02-23T11:05:27;11.40;99.90
23291;DHT22;11814;44.686;10.842;2024-02-23T11:07:56;11.40;99.90
23291;DHT22;11814;44.686;10.842;2024-02-23T11:10:22;11.50;99.90
23291;DHT22;11814;44.686;10.842;2024-02-23T11:12:59;11.60;99.90
23291;DHT22;11814;44.686;10.842;2024-02-23T11:15:30;11.60;99.90
23291;DHT22;11814;44.686;10.842;2024-02-23T11:17:56;11.60;99.90
23291;DHT22;11814;44.686;10.842;2024-02-23T11:20:21;11.60;99.90
23291;DHT22;11814;44.686;10.842;2024-02-23T11:22:52;11.60;99.90
23291;DHT22;11814;44.686;10.842;2024-02-23T11:25:26;11.60;99.90
23291;DHT22;11814;44.686;10.842;2024-02-23T11:27:52;11.60;99.90
23291;DHT22;11814;44.686;10.842;2024-02-23T11:30:18;11.50;99.90
23291;DHT22;11814;44.686;10.842;2024-02-23T11:32:45;11.50;99.90
23291;DHT22;11814;44.686;10.842;2024-02-23T11:35:13;11.50;99.90
23291;DHT22;11814;44.686;10.842;2024-02-23T11:37:52;11.40;99.90
23291;DHT22;11814;44.686;10.842;2024-02-23T11:40:25;11.50;99.90
23291;DHT22;11814;44.686;10.842;2024-02-23T11:42:51;11.50;99.90
23291;DHT22;11814;44.686;10.842;2024-02-23T11:45:17;11.40;99.90
23291;DHT22;11814;44.686;10.842;2024-02-23T11:47:42;11.40;99.90
23291;DHT22;11814;44.686;10.842;2024-02-23T11:50:11;11.40;99.90
23291;DHT22;11814;44.686;10.842;2024-02-23T11:52:40;11.40;99.90
23291;DHT22;11814;44.686;10.842;2024-02-23T11:55:06;11.40;99.90
23291;DHT22;11814;44.686;10.842;2024-02-23T11:57:34;11.50;99.90
23291;DHT22;11814;44.686;10.842;2024-02-23T12:00:04;11.50;99.90
23291;DHT22;11814;44.686;10.842;2024-02-23T12:02:32;11.40;99.90
23291;DHT22;11814;44.686;10.842;2024-02-23T12:04:58;11.50;99.90
23291;DHT22;11814;44.686;10.842;2024-02-23T12:07:23;11.50;99.90
23291;DHT22;11814;44.686;10.842;2024-02-23T12:09:52;11.50;99.90
23291;DHT22;11814;44.686;10.842;2024-02-23T12:12:17;11.50;99.90
23291;DHT22;11814;44.686;10.842;2024-02-23T12:14:44;11.50;99.90
23291;DHT22;11814;44.686;10.842;2024-02-23T12:17:09;11.60;99.90
23291;DHT22;11814;44.686;10.842;2024-02-23T12:19:39;11.60;99.90
23291;DHT22;11814;44.686;10.842;2024-02-23T12:22:05;11.70;99.90
23291;DHT22;11814;44.686;10.842;2024-02-23T12:24:30;11.70;99.90
23291;DHT22;11814;44.686;10.842;2024-02-23T12:26:57;11.70;99.90
23291;DHT22;11814;44.686;10.842;2024-02-23T12:29:23;11.70;99.90
23291;DHT22;11814;44.686;10.842;2024-02-23T12:31:49;11.80;99.90
23291;DHT22;11814;44.686;10.842;2024-02-23T12:34:15;11.80;99.90
23291;DHT22;11814;44.686;10.842;2024-02-23T12:36:41;11.80;99.90
23291;DHT22;11814;44.686;10.842;2024-02-23T12:39:07;11.80;99.90
23291;DHT22;11814;44.686;10.842;2024-02-23T12:41:32;11.70;99.90
23291;DHT22;11814;44.686;10.842;2024-02-23T12:43:58;11.70;99.90
23291;DHT22;11814;44.686;10.842;2024-02-23T12:46:24;11.70;99.90
23291;DHT22;11814;44.686;10.842;2024-02-23T12:48:51;11.80;99.90
23291;DHT22;11814;44.686;10.842;2024-02-23T12:51:16;11.80;99.90
23291;DHT22;11814;44.686;10.842;2024-02-23T12:53:43;11.70;99.90
23291;DHT22;11814;44.686;10.842;2024-02-23T12:56:10;11.80;99.90
23291;DHT22;11814;44.686;10.842;2024-02-23T12:58:46;11.80;99.90
23291;DHT22;11814;44.686;10.842;2024-02-23T13:01:12;11.80;99.90
23291;DHT22;11814;44.686;10.842;2024-02-23T13:03:39;11.70;99.90
23291;DHT22;11814;44.686;10.842;2024-02-23T13:06:07;11.70;99.90
23291;DHT22;11814;44.686;10.842;2024-02-23T13:08:33;11.70;99.90
23291;DHT22;11814;44.686;10.842;2024-02-23T13:11:00;11.70;99.90
23291;DHT22;11814;44.686;10.842;2024-02-23T13:13:26;11.70;99.90
23291;DHT22;11814;44.686;10.842;2024-02-23T13:15:53;11.70;99.90
23291;DHT22;11814;44.686;10.842;2024-02-23T13:18:19;11.70;99.90
23291;DHT22;11814;44.686;10.842;2024-02-23T13:20:45;11.70;99.90
23291;DHT22;11814;44.686;10.842;2024-02-23T13:23:11;11.70;99.90
23291;DHT22;11814;44.686;10.842;2024-02-23T13:25:40;11.70;99.90
23291;DHT22;11814;44.686;10.842;2024-02-23T13:28:07;11.70;99.90
23291;DHT22;11814;44.686;10.842;2024-02-23T13:30:33;11.70;99.90
23291;DHT22;11814;44.686;10.842;2024-02-23T13:33:02;11.70;99.90
23291;DHT22;11814;44.686;10.842;2024-02-23T13:35:28;11.70;99.90
23291;DHT22;11814;44.686;10.842;2024-02-23T13:37:54;11.70;99.90
23291;DHT22;11814;44.686;10.842;2024-02-23T13:40:20;11.60;99.90
23291;DHT22;11814;44.686;10.842;2024-02-23T13:42:46;11.60;99.90
23291;DHT22;11814;44.686;10.842;2024-02-23T13:45:15;11.70;99.90
23291;DHT22;11814;44.686;10.842;2024-02-23T13:47:41;11.70;99.90
23291;DHT22;11814;44.686;10.842;2024-02-23T13:50:07;11.70;99.90
23291;DHT22;11814;44.686;10.842;2024-02-23T13:52:32;11.80;99.90
23291;DHT22;11814;44.686;10.842;2024-02-23T13:54:59;11.80;99.90
23291;DHT22;11814;44.686;10.842;2024-02-23T13:57:25;11.80;99.90
23291;DHT22;11814;44.686;10.842;2024-02-23T13:59:51;11.80;99.90
23291;DHT22;11814;44.686;10.842;2024-02-23T14:02:25;11.80;99.90
23291;DHT22;11814;44.686;10.842;2024-02-23T14:04:51;11.80;99.90
23291;DHT22;11814;44.686;10.842;2024-02-23T14:07:16;11.80;99.90
23291;DHT22;11814;44.686;10.842;2024-02-23T14:09:43;11.80;99.90
23291;DHT22;11814;44.686;10.842;2024-02-23T14:12:09;11.70;99.90
23291;DHT22;11814;44.686;10.842;2024-02-23T14:14:34;11.70;99.90
23291;DHT22;11814;44.686;10.842;2024-02-23T14:17:00;11.70;99.90
23291;DHT22;11814;44.686;10.842;2024-02-23T14:19:25;11.70;99.90
23291;DHT22;11814;44.686;10.842;2024-02-23T14:21:52;11.70;99.90
23291;DHT22;11814;44.686;10.842;2024-02-23T14:24:17;11.70;99.90
23291;DHT22;11814;44.686;10.842;2024-02-23T14:26:43;11.70;99.90
23291;DHT22;11814;44.686;10.842;2024-02-23T14:29:08;11.80;99.90
23291;DHT22;11814;44.686;10.842;2024-02-23T14:31:34;11.70;99.90
23291;DHT22;11814;44.686;10.842;2024-02-23T14:34:00;11.70;99.90
23291;DHT22;11814;44.686;10.842;2024-02-23T14:36:25;11.60;99.90
23291;DHT22;11814;44.686;10.842;2024-02-23T14:38:51;11.70;99.90
23291;DHT22;11814;44.686;10.842;2024-02-23T14:41:17;11.70;99.90
23291;DHT22;11814;44.686;10.842;2024-02-23T14:43:43;11.80;99.90
23291;DHT22;11814;44.686;10.842;2024-02-23T14:46:08;11.80;99.90
23291;DHT22;11814;44.686;10.842;2024-02-23T14:48:34;11.80;99.90
23291;DHT22;11814;44.686;10.842;2024-02-23T14:51:00;11.80;99.90
23291;DHT22;11814;44.686;10.842;2024-02-23T14:53:29;11.90;99.90
23291;DHT22;11814;44.686;10.842;2024-02-23T14:55:55;11.90;99.90
23291;DHT22;11814;44.686;10.842;2024-02-23T14:58:20;11.90;99.90
23291;DHT22;11814;44.686;10.842;2024-02-23T15:00:46;11.90;99.90
23291;DHT22;11814;44.686;10.842;2024-02-23T15:03:12;11.80;99.90
23291;DHT22;11814;44.686;10.842;2024-02-23T15:05:38;11.80;99.90
23291;DHT22;11814;44.686;10.842;2024-02-23T15:08:04;11.80;99.90
23291;DHT22;11814;44.686;10.842;2024-02-23T15:10:30;11.70;99.90